createdAt,value
2019-05-07T00:01:55.246Z,98608.03
2019-05-07T00:07:02.509Z,98607.53
2019-05-07T00:12:07.971Z,98608.03
2019-05-07T00:17:13.202Z,98600.13
2019-05-07T00:22:18.371Z,98593.10
2019-05-07T00:27:23.455Z,98603.88
2019-05-07T00:32:28.688Z,98592.39
2019-05-07T00:37:39.546Z,98600.26
2019-05-07T00:43:07.148Z,98596.63
2019-05-07T00:48:12.723Z,98586.72
2019-05-07T00:53:18.970Z,98587.77
2019-05-07T00:58:26.754Z,98585.77
2019-05-07T01:03:32.861Z,98586.47
2019-05-07T01:08:38.003Z,98586.38
2019-05-07T01:13:43.347Z,98584.34
2019-05-07T01:18:48.699Z,98586.88
2019-05-07T01:23:53.843Z,98576.96
2019-05-07T01:28:58.995Z,98572.88
2019-05-07T01:34:23.053Z,98572.16
2019-05-07T01:39:28.406Z,98575.66
2019-05-07T01:44:33.482Z,98579.06
2019-05-07T01:49:38.569Z,98576.90
2019-05-07T01:54:43.597Z,98583.89
2019-05-07T01:59:48.744Z,98579.56
2019-05-07T02:05:03.458Z,98584.64
2019-05-07T02:10:25.132Z,98579.44
2019-05-07T02:15:32.327Z,98579.22
2019-05-07T02:20:37.504Z,98567.69
2019-05-07T02:25:42.582Z,98566.36
2019-05-07T02:30:47.678Z,98574.84
2019-05-07T02:35:53.568Z,98571.20
2019-05-07T02:41:05.495Z,98573.23
2019-05-07T02:46:30.878Z,98567.22
2019-05-07T02:51:35.372Z,98567.47
2019-05-07T02:56:43.268Z,98568.67
2019-05-07T03:01:47.534Z,98566.01
2019-05-07T03:06:54.223Z,98568.21
2019-05-07T03:11:59.748Z,98563.34
2019-05-07T03:17:05.441Z,98557.77
2019-05-07T03:22:13.934Z,98557.90
2019-05-07T03:27:17.800Z,98562.23
2019-05-07T03:32:36.740Z,98562.09
2019-05-07T03:37:39.328Z,98564.26
2019-05-07T03:42:44.660Z,98568.97
2019-05-07T03:47:55.443Z,98565.34
2019-05-07T03:53:02.882Z,98562.80
2019-05-07T03:58:08.443Z,98568.50
2019-05-07T04:03:18.763Z,98566.67
2019-05-07T04:08:23.658Z,98576.22
2019-05-07T04:13:28.316Z,98574.52
2019-05-07T04:18:43.367Z,98576.88
2019-05-07T04:23:49.028Z,98575.66
2019-05-07T04:29:05.552Z,98588.54
2019-05-07T04:34:14.900Z,98587.23
2019-05-07T04:39:22.946Z,98589.42
2019-05-07T04:44:27.056Z,98591.66
2019-05-07T04:49:33.164Z,98592.51
2019-05-07T04:54:39.065Z,98589.40
2019-05-07T04:59:44.396Z,98595.83
2019-05-07T05:04:49.579Z,98597.55
2019-05-07T05:09:54.754Z,98599.28
2019-05-07T05:15:02.172Z,98598.33
2019-05-07T05:20:08.152Z,98598.12
2019-05-07T05:25:17.532Z,98607.11
2019-05-07T05:30:29.909Z,98612.69
2019-05-07T05:35:35.441Z,98616.83
2019-05-07T05:40:42.671Z,98620.11
2019-05-07T05:45:48.396Z,98622.42
2019-05-07T05:51:13.347Z,98624.73
2019-05-07T05:56:33.809Z,98628.73
2019-05-07T06:01:57.876Z,98631.77
2019-05-07T06:07:11.446Z,98631.41
2019-05-07T06:12:34.164Z,98637.11
2019-05-07T06:17:51.843Z,98636.41
2019-05-07T06:23:23.438Z,98646.73
2019-05-07T06:28:28.824Z,98658.00
2019-05-07T06:33:34.693Z,98664.36
2019-05-07T06:38:46.251Z,98661.42
2019-05-07T06:43:55.552Z,98662.44
2019-05-07T06:49:02.154Z,98678.48
2019-05-07T06:54:08.790Z,98672.91
2019-05-07T06:59:22.642Z,98673.19
2019-05-07T07:04:37.166Z,98667.19
2019-05-07T07:09:53.986Z,98667.23
2019-05-07T07:14:59.170Z,98664.28
2019-05-07T07:20:05.003Z,98663.11
2019-05-07T07:25:11.915Z,98660.45
2019-05-07T07:30:46.452Z,98664.69
2019-05-07T07:35:52.171Z,98662.95
2019-05-07T07:41:05.496Z,98668.74
2019-05-07T07:46:13.146Z,98665.56
2019-05-07T07:51:17.993Z,98670.92
2019-05-07T07:56:53.167Z,98671.51
2019-05-07T08:02:01.815Z,98673.73
2019-05-07T08:07:07.255Z,98677.12
2019-05-07T08:12:12.969Z,98676.61
2019-05-07T08:17:18.147Z,98675.06
2019-05-07T08:22:23.316Z,98673.33
2019-05-07T08:27:29.370Z,98672.99
2019-05-07T08:32:55.048Z,98670.62
2019-05-07T08:38:02.181Z,98662.11
2019-05-07T08:43:07.954Z,98652.30
2019-05-07T08:48:24.332Z,98652.50
2019-05-07T08:53:29.643Z,98644.70
2019-05-07T08:58:35.852Z,98638.81
2019-05-07T09:03:44.074Z,98640.67
2019-05-07T09:08:49.463Z,98643.20
2019-05-07T09:13:55.107Z,98638.36
2019-05-07T09:19:02.159Z,98646.39
2019-05-07T09:24:07.844Z,98650.53
2019-05-07T09:29:18.965Z,98657.58
2019-05-07T09:34:25.462Z,98651.74
2019-05-07T09:39:32.481Z,98650.06
2019-05-07T09:44:38.038Z,98650.86
2019-05-07T09:49:43.614Z,98643.55
2019-05-07T09:54:48.853Z,98642.58
2019-05-07T09:59:54.386Z,98630.72
2019-05-07T10:05:02.477Z,98625.92
2019-05-07T10:10:09.182Z,98622.09
2019-05-07T10:15:14.643Z,98618.33
2019-05-07T10:20:22.515Z,98613.61
2019-05-07T10:25:39.506Z,98615.25
2019-05-07T10:30:44.862Z,98605.53
2019-05-07T10:35:50.019Z,98601.94
2019-05-07T10:40:55.195Z,98595.97
2019-05-07T10:46:25.698Z,98590.41
2019-05-07T10:51:32.213Z,98590.23
2019-05-07T10:56:37.554Z,98589.45
2019-05-07T11:01:48.210Z,98585.31
2019-05-07T11:06:53.373Z,98592.66
2019-05-07T11:11:58.658Z,98581.66
2019-05-07T11:17:12.616Z,98578.27
2019-05-07T11:22:17.850Z,98568.33
2019-05-07T11:27:23.978Z,98562.27
2019-05-07T11:32:29.357Z,98556.47
2019-05-07T11:37:34.594Z,98548.67
2019-05-07T11:43:05.418Z,98542.41
2019-05-07T11:48:13.148Z,98540.91
2019-05-07T11:53:18.045Z,98534.05
2019-05-07T11:58:23.287Z,98527.87
2019-05-07T12:03:28.531Z,98531.30
2019-05-07T12:08:43.037Z,98525.33
2019-05-07T12:13:42.740Z,98516.68
2019-05-07T12:18:48.505Z,98517.80
2019-05-07T12:23:54.536Z,98507.59
2019-05-07T12:28:59.758Z,98510.95
2019-05-07T12:34:08.913Z,98503.59
2019-05-07T12:39:14.342Z,98507.10
2019-05-07T12:44:22.058Z,98500.02
2019-05-07T12:49:26.770Z,98507.75
2019-05-07T12:54:54.068Z,98510.70
2019-05-07T13:00:18.284Z,98501.89
2019-05-07T13:05:23.935Z,98509.34
2019-05-07T13:10:32.342Z,98508.15
2019-05-07T13:15:36.928Z,98498.30
2019-05-07T13:20:43.217Z,98496.09
2019-05-07T13:25:48.435Z,98492.77
2019-05-07T13:30:53.699Z,98491.11
2019-05-07T13:35:59.504Z,98503.52
2019-05-07T13:41:33.379Z,98497.03
2019-05-07T13:46:39.659Z,98492.98
2019-05-07T13:51:45.207Z,98497.58
2019-05-07T13:56:52.563Z,98488.17
2019-05-07T14:02:05.462Z,98486.81
2019-05-07T14:07:12.657Z,98481.55
2019-05-07T14:12:17.954Z,98481.75
2019-05-07T14:17:23.834Z,98476.37
2019-05-07T14:22:31.677Z,98474.91
2019-05-07T14:27:36.438Z,98474.00
2019-05-07T14:33:06.080Z,98466.42
2019-05-07T14:38:24.588Z,98463.77
2019-05-07T14:43:36.602Z,98453.52
2019-05-07T14:48:43.852Z,98454.09
2019-05-07T14:53:50.380Z,98452.95
2019-05-07T14:58:56.391Z,98447.87
2019-05-07T15:04:02.304Z,98444.54
2019-05-07T15:09:09.577Z,98447.09
2019-05-07T15:14:16.070Z,98434.02
2019-05-07T15:19:21.713Z,98437.80
2019-05-07T15:24:27.008Z,98444.41
2019-05-07T15:29:32.240Z,98441.48
2019-05-07T15:34:37.468Z,98440.30
2019-05-07T15:39:42.722Z,98434.20
2019-05-07T15:44:47.873Z,98432.73
2019-05-07T15:49:53.105Z,98434.56
2019-05-07T15:54:58.398Z,98429.38
2019-05-07T16:00:07.003Z,98423.30
2019-05-07T16:05:13.165Z,98434.45
2019-05-07T16:10:18.526Z,98423.30
2019-05-07T16:15:24.392Z,98423.22
2019-05-07T16:20:32.410Z,98419.01
2019-05-07T16:25:37.101Z,98422.56
2019-05-07T16:30:42.820Z,98414.01
2019-05-07T16:35:47.864Z,98411.10
2019-05-07T16:40:53.123Z,98406.07
2019-05-07T16:45:59.562Z,98410.45
2019-05-07T16:51:05.983Z,98408.80
2019-05-07T16:56:12.347Z,98401.69
2019-05-07T17:01:17.836Z,98406.20
2019-05-07T17:06:25.092Z,98399.56
2019-05-07T17:11:32.037Z,98394.53
2019-05-07T17:16:37.415Z,98395.88
2019-05-07T17:21:43.206Z,98394.48
2019-05-07T17:26:51.248Z,98391.75
2019-05-07T17:31:56.765Z,98397.12
2019-05-07T17:37:03.485Z,98392.70
2019-05-07T17:42:09.229Z,98390.73
2019-05-07T17:47:14.660Z,98393.20
2019-05-07T17:52:22.747Z,98392.55
2019-05-07T17:57:29.779Z,98385.42
2019-05-07T18:02:42.258Z,98383.20
2019-05-07T18:07:47.644Z,98381.20
2019-05-07T18:12:53.739Z,98372.55
2019-05-07T18:18:04.178Z,98378.84
2019-05-07T18:23:13.334Z,98381.83
2019-05-07T18:28:16.794Z,98389.10
2019-05-07T18:33:30.707Z,98391.99
2019-05-07T18:38:35.926Z,98384.14
2019-05-07T18:43:42.222Z,98382.09
2019-05-07T18:48:47.930Z,98381.20
2019-05-07T18:53:53.372Z,98382.48
2019-05-07T18:58:58.632Z,98377.81
2019-05-07T19:04:03.972Z,98382.00
2019-05-07T19:09:10.164Z,98383.45
2019-05-07T19:14:15.325Z,98383.58
2019-05-07T19:19:22.138Z,98385.52
2019-05-07T19:24:35.242Z,98386.78
2019-05-07T19:29:36.036Z,98390.41
2019-05-07T19:34:41.800Z,98388.17
2019-05-07T19:39:47.354Z,98385.77
2019-05-07T19:44:52.482Z,98383.72
2019-05-07T19:49:58.675Z,98384.35
2019-05-07T19:55:04.901Z,98381.12
2019-05-07T20:00:12.157Z,98376.12
2019-05-07T20:05:17.969Z,98372.45
2019-05-07T20:10:33.051Z,98364.92
2019-05-07T20:15:39.790Z,98359.00
2019-05-07T20:20:46.286Z,98351.39
2019-05-07T20:25:52.855Z,98344.27
2019-05-07T20:30:59.515Z,98348.87
2019-05-07T20:36:05.959Z,98343.78
2019-05-07T20:41:12.891Z,98335.67
2019-05-07T20:46:18.203Z,98338.30
2019-05-07T20:51:23.537Z,98331.03
2019-05-07T20:56:32.372Z,98325.67
2019-05-07T21:01:37.585Z,98330.11
2019-05-07T21:06:43.296Z,98321.01
2019-05-07T21:11:48.606Z,98325.04
2019-05-07T21:16:53.773Z,98320.59
2019-05-07T21:21:58.961Z,98314.44
2019-05-07T21:27:04.203Z,98305.55
2019-05-07T21:32:09.369Z,98309.77
2019-05-07T21:37:14.456Z,98307.84
2019-05-07T21:42:20.164Z,98308.91
2019-05-07T21:47:26.020Z,98301.39
2019-05-07T21:52:33.888Z,98304.06
2019-05-07T21:58:02.339Z,98302.28
2019-05-07T22:03:12.546Z,98286.70
2019-05-07T22:08:17.644Z,98288.56
2019-05-07T22:13:22.811Z,98286.45
2019-05-07T22:18:27.833Z,98281.37
2019-05-07T22:23:33.527Z,98285.79
2019-05-07T22:28:38.618Z,98281.78
2019-05-07T22:34:02.681Z,98270.52
2019-05-07T22:39:08.030Z,98260.67
2019-05-07T22:44:14.937Z,98257.69
2019-05-07T22:49:20.101Z,98237.98
2019-05-07T22:54:25.523Z,98227.09
2019-05-07T22:59:32.850Z,98221.33
2019-05-07T23:04:38.139Z,98219.18
2019-05-07T23:09:44.874Z,98220.71
2019-05-07T23:14:51.414Z,98208.52
2019-05-07T23:19:56.821Z,98209.14
2019-05-07T23:25:01.910Z,98198.50
2019-05-07T23:30:07.803Z,98199.88
2019-05-07T23:35:13.003Z,98201.11
2019-05-07T23:40:25.791Z,98186.77
2019-05-07T23:45:31.625Z,98175.76
2019-05-07T23:50:36.782Z,98174.32
2019-05-07T23:55:42.501Z,98174.72
